sensor_id;sensor_type;location;lat;lon;timestamp;pressure;altitude;pressure_sealevel;temperature;humidity
63339;BME280;70568;51.378;-1.342;2023-07-29T00:01:46;99203.24;;;14.52;35.29
63339;BME280;70568;51.378;-1.342;2023-07-29T00:04:13;99205.79;;;13.12;36.99
63339;BME280;70568;51.378;-1.342;2023-07-29T00:06:39;99204.28;;;13.79;36.42
63339;BME280;70568;51.378;-1.342;2023-07-29T00:09:05;99203.68;;;14.05;35.48
63339;BME280;70568;51.378;-1.342;2023-07-29T00:11:33;99197.70;;;12.99;35.88
63339;BME280;70568;51.378;-1.342;2023-07-29T00:13:59;99194.99;;;16.50;33.57
63339;BME280;70568;51.378;-1.342;2023-07-29T00:16:26;99200.84;;;13.82;36.42
63339;BME280;70568;51.378;-1.342;2023-07-29T00:18:53;99195.24;;;15.86;34.99
63339;BME280;70568;51.378;-1.342;2023-07-29T00:21:20;99197.59;;;14.29;36.52
63339;BME280;70568;51.378;-1.342;2023-07-29T00:23:47;99192.45;;;15.02;35.36
63339;BME280;70568;51.378;-1.342;2023-07-29T00:26:13;99194.38;;;13.54;36.14
63339;BME280;70568;51.378;-1.342;2023-07-29T00:28:40;99201.64;;;13.43;36.25
63339;BME280;70568;51.378;-1.342;2023-07-29T00:31:06;99199.12;;;15.67;34.99
63339;BME280;70568;51.378;-1.342;2023-07-29T00:33:33;99205.74;;;12.02;37.82
63339;BME280;70568;51.378;-1.342;2023-07-29T00:35:59;99198.46;;;14.03;35.40
63339;BME280;70568;51.378;-1.342;2023-07-29T00:38:25;99200.16;;;13.75;36.86
63339;BME280;70568;51.378;-1.342;2023-07-29T00:40:52;99189.72;;;15.93;34.32
63339;BME280;70568;51.378;-1.342;2023-07-29T00:43:19;99189.81;;;15.53;35.55
63339;BME280;70568;51.378;-1.342;2023-07-29T00:45:46;99198.24;;;14.67;36.34
63339;BME280;70568;51.378;-1.342;2023-07-29T00:48:14;99192.78;;;13.62;36.88
63339;BME280;70568;51.378;-1.342;2023-07-29T00:50:41;99191.65;;;14.66;36.52
63339;BME280;70568;51.378;-1.342;2023-07-29T00:53:10;99194.27;;;13.14;37.54
63339;BME280;70568;51.378;-1.342;2023-07-29T00:55:37;99188.14;;;13.91;36.76
63339;BME280;70568;51.378;-1.342;2023-07-29T00:58:04;99180.59;;;13.83;35.61
63339;BME280;70568;51.378;-1.342;2023-07-29T01:00:31;99179.24;;;15.08;36.04
63339;BME280;70568;51.378;-1.342;2023-07-29T01:02:57;99180.28;;;14.35;35.51
63339;BME280;70568;51.378;-1.342;2023-07-29T01:05:29;99183.89;;;15.68;35.76
63339;BME280;70568;51.378;-1.342;2023-07-29T01:08:05;99191.62;;;13.39;35.95
63339;BME280;70568;51.378;-1.342;2023-07-29T01:10:41;99187.32;;;15.37;35.11
63339;BME280;70568;51.378;-1.342;2023-07-29T01:13:18;99183.96;;;16.39;35.13
63339;BME280;70568;51.378;-1.342;2023-07-29T01:15:54;99181.23;;;15.49;35.07
63339;BME280;70568;51.378;-1.342;2023-07-29T01:18:23;99176.44;;;14.94;34.61
63339;BME280;70568;51.378;-1.342;2023-07-29T01:20:53;99168.33;;;13.75;36.13
63339;BME280;70568;51.378;-1.342;2023-07-29T01:23:23;99161.23;;;13.98;35.84
63339;BME280;70568;51.378;-1.342;2023-07-29T01:25:50;99166.98;;;12.70;36.38
63339;BME280;70568;51.378;-1.342;2023-07-29T01:28:17;99168.41;;;13.28;35.87
63339;BME280;70568;51.378;-1.342;2023-07-29T01:30:45;99166.34;;;12.36;37.43
63339;BME280;70568;51.378;-1.342;2023-07-29T01:33:17;99153.29;;;14.00;36.40
63339;BME280;70568;51.378;-1.342;2023-07-29T01:35:48;99152.27;;;12.59;36.27
63339;BME280;70568;51.378;-1.342;2023-07-29T01:38:18;99144.85;;;15.51;34.22
63339;BME280;70568;51.378;-1.342;2023-07-29T01:40:48;99149.55;;;12.91;36.12
63339;BME280;70568;51.378;-1.342;2023-07-29T01:43:15;99151.08;;;13.77;35.05
63339;BME280;70568;51.378;-1.342;2023-07-29T01:45:41;99153.01;;;15.07;34.11
63339;BME280;70568;51.378;-1.342;2023-07-29T01:48:09;99161.77;;;12.21;36.76
63339;BME280;70568;51.378;-1.342;2023-07-29T01:50:36;99159.90;;;14.33;36.15
63339;BME280;70568;51.378;-1.342;2023-07-29T01:53:03;99152.52;;;13.93;35.67
63339;BME280;70568;51.378;-1.342;2023-07-29T01:55:29;99155.57;;;14.74;35.88
63339;BME280;70568;51.378;-1.342;2023-07-29T01:57:56;99151.02;;;14.71;37.30
63339;BME280;70568;51.378;-1.342;2023-07-29T02:00:23;99156.15;;;11.35;39.20
63339;BME280;70568;51.378;-1.342;2023-07-29T02:02:49;99151.16;;;13.21;38.56
63339;BME280;70568;51.378;-1.342;2023-07-29T02:05:16;99151.87;;;13.35;37.93
63339;BME280;70568;51.378;-1.342;2023-07-29T02:07:43;99153.65;;;10.69;40.09
63339;BME280;70568;51.378;-1.342;2023-07-29T02:10:10;99152.46;;;12.67;38.17
63339;BME280;70568;51.378;-1.342;2023-07-29T02:12:36;99151.10;;;13.16;36.51
63339;BME280;70568;51.378;-1.342;2023-07-29T02:15:03;99160.40;;;13.23;36.89
63339;BME280;70568;51.378;-1.342;2023-07-29T02:17:30;99161.85;;;13.95;36.73
63339;BME280;70568;51.378;-1.342;2023-07-29T02:19:58;99152.86;;;14.59;35.43
63339;BME280;70568;51.378;-1.342;2023-07-29T02:22:24;99161.77;;;12.69;37.89
63339;BME280;70568;51.378;-1.342;2023-07-29T02:24:50;99157.26;;;14.84;35.72
63339;BME280;70568;51.378;-1.342;2023-07-29T02:27:17;99154.63;;;12.75;37.43
63339;BME280;70568;51.378;-1.342;2023-07-29T02:29:43;99156.58;;;10.91;39.11
63339;BME280;70568;51.378;-1.342;2023-07-29T02:32:11;99146.32;;;13.18;37.44
63339;BME280;70568;51.378;-1.342;2023-07-29T02:34:38;99149.58;;;11.85;38.85
63339;BME280;70568;51.378;-1.342;2023-07-29T02:37:04;99145.52;;;14.31;37.30
63339;BME280;70568;51.378;-1.342;2023-07-29T02:39:30;99148.61;;;12.74;38.38
63339;BME280;70568;51.378;-1.342;2023-07-29T02:41:57;99151.17;;;12.69;38.70
63339;BME280;70568;51.378;-1.342;2023-07-29T02:44:24;99142.89;;;13.59;38.04
63339;BME280;70568;51.378;-1.342;2023-07-29T02:46:51;99146.71;;;12.70;38.48
63339;BME280;70568;51.378;-1.342;2023-07-29T02:49:18;99143.94;;;13.62;37.96
63339;BME280;70568;51.378;-1.342;2023-07-29T02:51:44;99146.20;;;13.83;38.31
63339;BME280;70568;51.378;-1.342;2023-07-29T02:54:11;99147.00;;;12.72;38.33
63339;BME280;70568;51.378;-1.342;2023-07-29T02:56:38;99144.28;;;14.59;37.96
63339;BME280;70568;51.378;-1.342;2023-07-29T02:59:04;99141.06;;;13.28;37.87
63339;BME280;70568;51.378;-1.342;2023-07-29T03:01:31;99141.51;;;13.97;37.03
63339;BME280;70568;51.378;-1.342;2023-07-29T03:03:58;99136.75;;;12.40;37.62
63339;BME280;70568;51.378;-1.342;2023-07-29T03:06:25;99135.08;;;14.60;35.84
63339;BME280;70568;51.378;-1.342;2023-07-29T03:08:51;99136.92;;;13.23;36.64
63339;BME280;70568;51.378;-1.342;2023-07-29T03:11:18;99129.99;;;13.32;36.46
63339;BME280;70568;51.378;-1.342;2023-07-29T03:13:44;99126.34;;;13.15;36.70
63339;BME280;70568;51.378;-1.342;2023-07-29T03:16:13;99134.74;;;10.72;38.44
63339;BME280;70568;51.378;-1.342;2023-07-29T03:18:41;99133.38;;;12.01;37.14
63339;BME280;70568;51.378;-1.342;2023-07-29T03:21:09;99131.65;;;11.90;38.50
63339;BME280;70568;51.378;-1.342;2023-07-29T03:23:37;99129.07;;;11.29;39.21
63339;BME280;70568;51.378;-1.342;2023-07-29T03:26:04;99130.82;;;14.36;37.11
63339;BME280;70568;51.378;-1.342;2023-07-29T03:28:33;99130.39;;;13.76;37.68
63339;BME280;70568;51.378;-1.342;2023-07-29T03:31:00;99131.72;;;14.71;37.08
63339;BME280;70568;51.378;-1.342;2023-07-29T03:33:27;99124.46;;;12.81;37.00
63339;BME280;70568;51.378;-1.342;2023-07-29T03:35:53;99122.14;;;13.12;37.71
63339;BME280;70568;51.378;-1.342;2023-07-29T03:38:19;99124.42;;;12.63;37.79
63339;BME280;70568;51.378;-1.342;2023-07-29T03:40:46;99133.10;;;12.59;36.59
63339;BME280;70568;51.378;-1.342;2023-07-29T03:43:13;99132.00;;;15.14;35.27
63339;BME280;70568;51.378;-1.342;2023-07-29T03:45:40;99129.84;;;13.98;34.72
63339;BME280;70568;51.378;-1.342;2023-07-29T03:48:07;99135.19;;;13.23;36.55
63339;BME280;70568;51.378;-1.342;2023-07-29T03:50:35;99135.09;;;13.66;37.00
63339;BME280;70568;51.378;-1.342;2023-07-29T03:53:03;99134.50;;;13.05;37.24
63339;BME280;70568;51.378;-1.342;2023-07-29T03:55:30;99138.14;;;13.38;37.34
63339;BME280;70568;51.378;-1.342;2023-07-29T03:57:58;99130.68;;;14.85;35.51
63339;BME280;70568;51.378;-1.342;2023-07-29T04:00:25;99136.38;;;11.44;37.26
63339;BME280;70568;51.378;-1.342;2023-07-29T04:02:52;99136.14;;;12.31;36.68
63339;BME280;70568;51.378;-1.342;2023-07-29T04:05:19;99137.82;;;13.79;36.42
63339;BME280;70568;51.378;-1.342;2023-07-29T04:07:46;99138.65;;;12.01;38.29
63339;BME280;70568;51.378;-1.342;2023-07-29T04:10:13;99136.37;;;13.54;37.16
63339;BME280;70568;51.378;-1.342;2023-07-29T04:12:39;99131.43;;;13.81;35.99
63339;BME280;70568;51.378;-1.342;2023-07-29T04:15:07;99133.63;;;14.30;36.38
63339;BME280;70568;51.378;-1.342;2023-07-29T04:17:34;99139.66;;;13.89;35.74
63339;BME280;70568;51.378;-1.342;2023-07-29T04:20:00;99141.27;;;14.64;36.09
63339;BME280;70568;51.378;-1.342;2023-07-29T04:22:27;99137.76;;;12.04;38.15
63339;BME280;70568;51.378;-1.342;2023-07-29T04:24:53;99137.77;;;9.71;38.79
63339;BME280;70568;51.378;-1.342;2023-07-29T04:27:19;99126.32;;;13.08;35.55
63339;BME280;70568;51.378;-1.342;2023-07-29T04:29:46;99124.24;;;12.34;35.86
63339;BME280;70568;51.378;-1.342;2023-07-29T04:32:12;99118.86;;;14.42;34.04
63339;BME280;70568;51.378;-1.342;2023-07-29T04:34:39;99122.45;;;13.39;35.05
63339;BME280;70568;51.378;-1.342;2023-07-29T04:37:05;99130.42;;;12.40;36.94
63339;BME280;70568;51.378;-1.342;2023-07-29T04:39:32;99129.18;;;13.19;34.82
63339;BME280;70568;51.378;-1.342;2023-07-29T04:41:59;99132.52;;;13.01;34.98
63339;BME280;70568;51.378;-1.342;2023-07-29T04:44:25;99135.97;;;14.29;34.25
63339;BME280;70568;51.378;-1.342;2023-07-29T04:46:52;99142.44;;;16.35;34.12
63339;BME280;70568;51.378;-1.342;2023-07-29T04:49:18;99149.41;;;12.21;36.30
63339;BME280;70568;51.378;-1.342;2023-07-29T04:51:45;99149.41;;;15.57;34.98
63339;BME280;70568;51.378;-1.342;2023-07-29T04:54:11;99154.03;;;13.07;36.82
63339;BME280;70568;51.378;-1.342;2023-07-29T04:56:38;99145.37;;;14.79;35.32
63339;BME280;70568;51.378;-1.342;2023-07-29T04:59:05;99147.76;;;13.16;36.93
63339;BME280;70568;51.378;-1.342;2023-07-29T05:01:31;99146.45;;;12.85;37.44
63339;BME280;70568;51.378;-1.342;2023-07-29T05:03:57;99154.18;;;10.77;38.30
63339;BME280;70568;51.378;-1.342;2023-07-29T05:06:24;99148.24;;;15.18;35.60
63339;BME280;70568;51.378;-1.342;2023-07-29T05:08:50;99146.23;;;12.50;38.02
63339;BME280;70568;51.378;-1.342;2023-07-29T05:11:17;99141.45;;;16.01;35.40
63339;BME280;70568;51.378;-1.342;2023-07-29T05:13:43;99144.01;;;13.24;36.83
63339;BME280;70568;51.378;-1.342;2023-07-29T05:16:11;99142.59;;;13.56;37.97
63339;BME280;70568;51.378;-1.342;2023-07-29T05:18:38;99141.66;;;12.72;37.59
63339;BME280;70568;51.378;-1.342;2023-07-29T05:21:04;99147.12;;;14.62;36.95
63339;BME280;70568;51.378;-1.342;2023-07-29T05:23:31;99152.05;;;11.51;39.13
63339;BME280;70568;51.378;-1.342;2023-07-29T05:25:58;99149.03;;;12.39;37.57
63339;BME280;70568;51.378;-1.342;2023-07-29T05:28:24;99146.16;;;12.49;37.31
63339;BME280;70568;51.378;-1.342;2023-07-29T05:30:50;99148.08;;;12.05;38.50
63339;BME280;70568;51.378;-1.342;2023-07-29T05:33:17;99152.10;;;12.47;38.67
63339;BME280;70568;51.378;-1.342;2023-07-29T05:35:43;99155.11;;;12.76;38.24
63339;BME280;70568;51.378;-1.342;2023-07-29T05:38:10;99156.33;;;12.09;38.26
63339;BME280;70568;51.378;-1.342;2023-07-29T05:40:37;99152.13;;;11.99;37.79
63339;BME280;70568;51.378;-1.342;2023-07-29T05:43:03;99150.26;;;14.14;34.94
63339;BME280;70568;51.378;-1.342;2023-07-29T05:45:30;99148.42;;;14.98;35.32
63339;BME280;70568;51.378;-1.342;2023-07-29T05:47:56;99157.50;;;14.06;36.98
63339;BME280;70568;51.378;-1.342;2023-07-29T05:50:23;99155.61;;;12.00;38.32
63339;BME280;70568;51.378;-1.342;2023-07-29T05:52:50;99152.34;;;13.17;36.19
63339;BME280;70568;51.378;-1.342;2023-07-29T05:55:16;99154.85;;;13.13;36.38
63339;BME280;70568;51.378;-1.342;2023-07-29T05:57:43;99149.76;;;14.30;35.57
63339;BME280;70568;51.378;-1.342;2023-07-29T06:00:11;99149.90;;;16.29;34.13
63339;BME280;70568;51.378;-1.342;2023-07-29T06:02:37;99150.77;;;15.89;34.51
63339;BME280;70568;51.378;-1.342;2023-07-29T06:05:04;99150.59;;;14.67;35.54
63339;BME280;70568;51.378;-1.342;2023-07-29T06:07:31;99152.49;;;15.70;34.75
63339;BME280;70568;51.378;-1.342;2023-07-29T06:09:57;99152.21;;;16.53;34.22
63339;BME280;70568;51.378;-1.342;2023-07-29T06:12:24;99150.48;;;15.92;35.18
63339;BME280;70568;51.378;-1.342;2023-07-29T06:14:50;99153.08;;;14.03;36.19
63339;BME280;70568;51.378;-1.342;2023-07-29T06:17:17;99150.77;;;15.05;35.29
63339;BME280;70568;51.378;-1.342;2023-07-29T06:19:43;99151.48;;;14.36;35.17
63339;BME280;70568;51.378;-1.342;2023-07-29T06:22:11;99149.77;;;13.41;35.87
63339;BME280;70568;51.378;-1.342;2023-07-29T06:24:38;99152.68;;;13.59;36.18
63339;BME280;70568;51.378;-1.342;2023-07-29T06:27:05;99150.75;;;13.64;35.64
63339;BME280;70568;51.378;-1.342;2023-07-29T06:29:31;99151.75;;;16.25;35.38
63339;BME280;70568;51.378;-1.342;2023-07-29T06:31:58;99153.13;;;14.17;36.14
63339;BME280;70568;51.378;-1.342;2023-07-29T06:34:25;99151.71;;;14.27;37.85
63339;BME280;70568;51.378;-1.342;2023-07-29T06:36:51;99151.48;;;13.02;38.37
63339;BME280;70568;51.378;-1.342;2023-07-29T06:39:18;99153.12;;;15.03;37.15
63339;BME280;70568;51.378;-1.342;2023-07-29T06:41:44;99153.54;;;15.92;36.40
63339;BME280;70568;51.378;-1.342;2023-07-29T06:44:11;99159.45;;;12.93;37.21
63339;BME280;70568;51.378;-1.342;2023-07-29T06:46:38;99162.42;;;11.80;38.42
63339;BME280;70568;51.378;-1.342;2023-07-29T06:49:05;99162.02;;;14.05;37.98
63339;BME280;70568;51.378;-1.342;2023-07-29T06:51:32;99169.75;;;12.76;39.84
63339;BME280;70568;51.378;-1.342;2023-07-29T06:53:59;99161.56;;;13.49;40.82
63339;BME280;70568;51.378;-1.342;2023-07-29T06:56:25;99166.02;;;13.57;41.23
63339;BME280;70568;51.378;-1.342;2023-07-29T06:58:52;99162.62;;;12.99;41.37
63339;BME280;70568;51.378;-1.342;2023-07-29T07:01:18;99161.21;;;11.85;42.47
63339;BME280;70568;51.378;-1.342;2023-07-29T07:03:45;99163.46;;;13.20;43.59
63339;BME280;70568;51.378;-1.342;2023-07-29T07:06:12;99164.32;;;11.83;43.03
63339;BME280;70568;51.378;-1.342;2023-07-29T07:08:38;99165.85;;;13.70;41.40
63339;BME280;70568;51.378;-1.342;2023-07-29T07:11:04;99165.25;;;11.94;41.93
63339;BME280;70568;51.378;-1.342;2023-07-29T07:13:31;99169.42;;;13.62;42.19
63339;BME280;70568;51.378;-1.342;2023-07-29T07:15:57;99168.43;;;13.42;41.61
63339;BME280;70568;51.378;-1.342;2023-07-29T07:18:24;99168.17;;;12.73;42.80
63339;BME280;70568;51.378;-1.342;2023-07-29T07:20:51;99168.50;;;13.08;41.90
63339;BME280;70568;51.378;-1.342;2023-07-29T07:23:18;99166.58;;;11.15;43.76
63339;BME280;70568;51.378;-1.342;2023-07-29T07:25:45;99169.34;;;12.30;44.35
63339;BME280;70568;51.378;-1.342;2023-07-29T07:28:11;99169.23;;;10.94;43.91
63339;BME280;70568;51.378;-1.342;2023-07-29T07:30:39;99163.88;;;12.33;42.26
63339;BME280;70568;51.378;-1.342;2023-07-29T07:33:08;99166.29;;;12.88;39.78
63339;BME280;70568;51.378;-1.342;2023-07-29T07:35:34;99169.10;;;14.07;39.70
63339;BME280;70568;51.378;-1.342;2023-07-29T07:38:02;99169.99;;;11.99;40.97
63339;BME280;70568;51.378;-1.342;2023-07-29T07:40:29;99162.23;;;12.85;40.32
63339;BME280;70568;51.378;-1.342;2023-07-29T07:42:56;99165.08;;;13.30;40.89
63339;BME280;70568;51.378;-1.342;2023-07-29T07:45:23;99163.77;;;12.13;41.03
63339;BME280;70568;51.378;-1.342;2023-07-29T07:47:51;99160.54;;;14.53;40.20
63339;BME280;70568;51.378;-1.342;2023-07-29T07:50:18;99164.57;;;13.02;40.37
63339;BME280;70568;51.378;-1.342;2023-07-29T07:52:44;99164.20;;;12.95;40.16
63339;BME280;70568;51.378;-1.342;2023-07-29T07:55:11;99166.66;;;13.61;40.79
63339;BME280;70568;51.378;-1.342;2023-07-29T07:57:38;99169.99;;;12.92;40.27
63339;BME280;70568;51.378;-1.342;2023-07-29T08:00:06;99171.15;;;12.42;40.11
63339;BME280;70568;51.378;-1.342;2023-07-29T08:02:33;99168.17;;;13.38;38.63
63339;BME280;70568;51.378;-1.342;2023-07-29T08:04:59;99174.54;;;15.15;38.44
63339;BME280;70568;51.378;-1.342;2023-07-29T08:07:25;99182.63;;;12.84;39.13
63339;BME280;70568;51.378;-1.342;2023-07-29T08:09:52;99182.66;;;13.13;39.88
63339;BME280;70568;51.378;-1.342;2023-07-29T08:12:19;99185.47;;;13.93;38.66
63339;BME280;70568;51.378;-1.342;2023-07-29T08:14:46;99182.96;;;13.81;39.48
63339;BME280;70568;51.378;-1.342;2023-07-29T08:17:12;99187.32;;;13.43;39.67
63339;BME280;70568;51.378;-1.342;2023-07-29T08:19:39;99193.09;;;13.30;39.30
63339;BME280;70568;51.378;-1.342;2023-07-29T08:22:05;99188.01;;;11.37;40.31
63339;BME280;70568;51.378;-1.342;2023-07-29T08:24:32;99189.74;;;13.40;39.15
63339;BME280;70568;51.378;-1.342;2023-07-29T08:26:58;99182.67;;;13.01;40.32
63339;BME280;70568;51.378;-1.342;2023-07-29T08:29:25;99181.06;;;12.56;39.44
63339;BME280;70568;51.378;-1.342;2023-07-29T08:31:51;99183.90;;;13.82;37.97
63339;BME280;70568;51.378;-1.342;2023-07-29T08:34:18;99186.14;;;14.27;37.56
63339;BME280;70568;51.378;-1.342;2023-07-29T08:36:44;99190.03;;;13.61;37.60
63339;BME280;70568;51.378;-1.342;2023-07-29T08:39:11;99187.04;;;14.53;37.13
63339;BME280;70568;51.378;-1.342;2023-07-29T08:41:43;99190.37;;;15.02;37.64
63339;BME280;70568;51.378;-1.342;2023-07-29T08:44:17;99193.00;;;13.46;39.42
63339;BME280;70568;51.378;-1.342;2023-07-29T08:46:45;99188.45;;;13.84;39.12
63339;BME280;70568;51.378;-1.342;2023-07-29T08:49:12;99190.45;;;14.30;37.89
63339;BME280;70568;51.378;-1.342;2023-07-29T08:51:41;99194.76;;;14.12;37.87
63339;BME280;70568;51.378;-1.342;2023-07-29T08:54:10;99196.50;;;14.09;39.53
63339;BME280;70568;51.378;-1.342;2023-07-29T08:56:38;99198.02;;;12.23;40.49
63339;BME280;70568;51.378;-1.342;2023-07-29T08:59:04;99194.56;;;12.34;40.42
63339;BME280;70568;51.378;-1.342;2023-07-29T09:01:31;99191.53;;;13.33;40.22
63339;BME280;70568;51.378;-1.342;2023-07-29T09:03:58;99191.54;;;13.75;39.55
63339;BME280;70568;51.378;-1.342;2023-07-29T09:06:26;99194.71;;;13.15;39.37
63339;BME280;70568;51.378;-1.342;2023-07-29T09:08:54;99193.95;;;12.92;39.21
63339;BME280;70568;51.378;-1.342;2023-07-29T09:11:21;99194.94;;;13.49;38.55
63339;BME280;70568;51.378;-1.342;2023-07-29T09:13:48;99194.85;;;13.17;37.55
63339;BME280;70568;51.378;-1.342;2023-07-29T09:16:15;99191.38;;;14.01;35.88
63339;BME280;70568;51.378;-1.342;2023-07-29T09:18:42;99193.98;;;14.86;34.36
63339;BME280;70568;51.378;-1.342;2023-07-29T09:21:09;99193.40;;;13.32;36.45
63339;BME280;70568;51.378;-1.342;2023-07-29T09:23:40;99189.66;;;14.61;35.03
63339;BME280;70568;51.378;-1.342;2023-07-29T09:26:07;99193.88;;;13.83;35.12
63339;BME280;70568;51.378;-1.342;2023-07-29T09:28:36;99199.94;;;12.61;37.11
63339;BME280;70568;51.378;-1.342;2023-07-29T09:31:03;99198.23;;;14.45;37.74
63339;BME280;70568;51.378;-1.342;2023-07-29T09:33:33;99200.87;;;14.25;37.70
63339;BME280;70568;51.378;-1.342;2023-07-29T09:36:00;99200.09;;;14.17;35.43
63339;BME280;70568;51.378;-1.342;2023-07-29T09:38:28;99204.84;;;14.35;35.05
63339;BME280;70568;51.378;-1.342;2023-07-29T09:40:56;99204.38;;;13.26;36.73
63339;BME280;70568;51.378;-1.342;2023-07-29T09:43:28;99209.43;;;13.00;37.50
63339;BME280;70568;51.378;-1.342;2023-07-29T09:46:00;99205.17;;;13.35;37.44
63339;BME280;70568;51.378;-1.342;2023-07-29T09:48:27;99207.53;;;13.29;37.07
63339;BME280;70568;51.378;-1.342;2023-07-29T09:50:54;99209.25;;;13.09;36.63
63339;BME280;70568;51.378;-1.342;2023-07-29T09:53:21;99213.31;;;14.35;35.66
63339;BME280;70568;51.378;-1.342;2023-07-29T09:55:48;99218.12;;;13.03;35.96
63339;BME280;70568;51.378;-1.342;2023-07-29T09:58:19;99214.40;;;13.68;38.02
63339;BME280;70568;51.378;-1.342;2023-07-29T10:00:46;99207.27;;;13.32;36.97
63339;BME280;70568;51.378;-1.342;2023-07-29T10:03:14;99211.39;;;12.51;37.17
63339;BME280;70568;51.378;-1.342;2023-07-29T10:05:41;99218.75;;;12.58;35.65
63339;BME280;70568;51.378;-1.342;2023-07-29T10:08:10;99217.26;;;14.37;35.61
63339;BME280;70568;51.378;-1.342;2023-07-29T10:10:37;99220.44;;;11.61;36.81
63339;BME280;70568;51.378;-1.342;2023-07-29T10:13:03;99217.62;;;13.15;36.88
63339;BME280;70568;51.378;-1.342;2023-07-29T10:15:32;99219.32;;;14.29;35.87
63339;BME280;70568;51.378;-1.342;2023-07-29T10:17:59;99223.15;;;13.69;36.01
63339;BME280;70568;51.378;-1.342;2023-07-29T10:20:28;99220.37;;;12.33;36.57
63339;BME280;70568;51.378;-1.342;2023-07-29T10:22:59;99223.33;;;14.08;34.97
63339;BME280;70568;51.378;-1.342;2023-07-29T10:25:38;99220.22;;;13.97;35.58
63339;BME280;70568;51.378;-1.342;2023-07-29T10:28:07;99218.27;;;13.59;35.61
63339;BME280;70568;51.378;-1.342;2023-07-29T10:30:35;99224.16;;;15.06;35.08
63339;BME280;70568;51.378;-1.342;2023-07-29T10:33:02;99224.97;;;14.55;35.79
63339;BME280;70568;51.378;-1.342;2023-07-29T10:35:29;99229.27;;;14.49;34.68
63339;BME280;70568;51.378;-1.342;2023-07-29T10:37:56;99229.07;;;12.31;35.17
63339;BME280;70568;51.378;-1.342;2023-07-29T10:40:24;99227.22;;;13.87;35.54
63339;BME280;70568;51.378;-1.342;2023-07-29T10:43:10;99232.36;;;13.06;36.66
63339;BME280;70568;51.378;-1.342;2023-07-29T10:45:38;99227.35;;;12.49;37.14
63339;BME280;70568;51.378;-1.342;2023-07-29T10:48:07;99229.42;;;13.63;35.12
63339;BME280;70568;51.378;-1.342;2023-07-29T10:50:36;99231.99;;;15.62;34.57
63339;BME280;70568;51.378;-1.342;2023-07-29T10:53:03;99233.84;;;15.41;34.37
63339;BME280;70568;51.378;-1.342;2023-07-29T10:55:33;99229.97;;;14.55;32.98
63339;BME280;70568;51.378;-1.342;2023-07-29T10:58:10;99232.73;;;16.05;33.12
63339;BME280;70568;51.378;-1.342;2023-07-29T11:00:38;99233.06;;;14.31;33.72
63339;BME280;70568;51.378;-1.342;2023-07-29T11:03:06;99232.92;;;14.88;34.17
63339;BME280;70568;51.378;-1.342;2023-07-29T11:05:50;99234.67;;;13.94;35.17
63339;BME280;70568;51.378;-1.342;2023-07-29T11:08:19;99235.48;;;14.89;34.45
63339;BME280;70568;51.378;-1.342;2023-07-29T11:11:00;99229.42;;;14.09;33.68
63339;BME280;70568;51.378;-1.342;2023-07-29T11:13:28;99228.60;;;14.65;33.71
63339;BME280;70568;51.378;-1.342;2023-07-29T11:15:55;99230.91;;;13.86;34.59
63339;BME280;70568;51.378;-1.342;2023-07-29T11:18:22;99228.04;;;14.20;34.65
63339;BME280;70568;51.378;-1.342;2023-07-29T11:20:49;99225.27;;;14.87;33.84
63339;BME280;70568;51.378;-1.342;2023-07-29T11:23:15;99221.67;;;14.50;32.74
63339;BME280;70568;51.378;-1.342;2023-07-29T11:25:42;99219.68;;;14.45;31.60
63339;BME280;70568;51.378;-1.342;2023-07-29T11:28:10;99227.67;;;15.16;33.90
63339;BME280;70568;51.378;-1.342;2023-07-29T11:30:39;99229.78;;;13.90;34.35
63339;BME280;70568;51.378;-1.342;2023-07-29T11:33:05;99227.91;;;15.44;34.79
63339;BME280;70568;51.378;-1.342;2023-07-29T11:35:32;99222.52;;;15.85;32.79
63339;BME280;70568;51.378;-1.342;2023-07-29T11:37:59;99228.04;;;14.66;33.72
63339;BME280;70568;51.378;-1.342;2023-07-29T11:40:26;99228.37;;;14.22;34.69
63339;BME280;70568;51.378;-1.342;2023-07-29T11:42:54;99232.73;;;13.05;34.33
63339;BME280;70568;51.378;-1.342;2023-07-29T11:45:22;99234.68;;;14.28;34.14
63339;BME280;70568;51.378;-1.342;2023-07-29T11:47:49;99237.81;;;12.77;35.48
63339;BME280;70568;51.378;-1.342;2023-07-29T11:50:16;99241.42;;;13.90;36.88
63339;BME280;70568;51.378;-1.342;2023-07-29T11:52:44;99244.06;;;12.84;36.57
63339;BME280;70568;51.378;-1.342;2023-07-29T11:55:13;99246.14;;;14.19;36.07
63339;BME280;70568;51.378;-1.342;2023-07-29T11:57:42;99245.12;;;15.38;35.11
63339;BME280;70568;51.378;-1.342;2023-07-29T12:00:11;99250.90;;;14.13;33.99
63339;BME280;70568;51.378;-1.342;2023-07-29T12:02:40;99249.22;;;14.91;34.97
63339;BME280;70568;51.378;-1.342;2023-07-29T12:05:09;99250.02;;;14.90;35.07
63339;BME280;70568;51.378;-1.342;2023-07-29T12:07:38;99241.40;;;14.42;34.87
63339;BME280;70568;51.378;-1.342;2023-07-29T12:10:06;99241.07;;;14.20;33.92
63339;BME280;70568;51.378;-1.342;2023-07-29T12:12:38;99240.65;;;15.87;33.57
63339;BME280;70568;51.378;-1.342;2023-07-29T12:15:08;99238.71;;;14.53;33.67
63339;BME280;70568;51.378;-1.342;2023-07-29T12:17:39;99238.99;;;14.86;33.18
63339;BME280;70568;51.378;-1.342;2023-07-29T12:20:09;99226.81;;;14.35;32.86
63339;BME280;70568;51.378;-1.342;2023-07-29T12:22:35;99231.07;;;15.02;30.57
63339;BME280;70568;51.378;-1.342;2023-07-29T12:25:03;99222.19;;;16.41;29.75
63339;BME280;70568;51.378;-1.342;2023-07-29T12:27:30;99221.58;;;16.88;28.91
63339;BME280;70568;51.378;-1.342;2023-07-29T12:29:57;99225.37;;;17.03;28.78
63339;BME280;70568;51.378;-1.342;2023-07-29T12:32:25;99225.38;;;15.91;29.88
63339;BME280;70568;51.378;-1.342;2023-07-29T12:34:53;99237.60;;;15.61;31.85
63339;BME280;70568;51.378;-1.342;2023-07-29T12:37:20;99238.00;;;16.17;31.03
63339;BME280;70568;51.378;-1.342;2023-07-29T12:39:50;99239.27;;;16.18;30.76
63339;BME280;70568;51.378;-1.342;2023-07-29T12:42:17;99254.73;;;15.29;31.38
63339;BME280;70568;51.378;-1.342;2023-07-29T12:44:43;99254.62;;;14.65;34.33
63339;BME280;70568;51.378;-1.342;2023-07-29T12:47:10;99259.25;;;14.75;35.36
63339;BME280;70568;51.378;-1.342;2023-07-29T12:49:38;99263.16;;;15.16;34.34
63339;BME280;70568;51.378;-1.342;2023-07-29T12:52:05;99267.17;;;13.95;36.32